createdAt,value
2022-11-08T00:00:00.467Z,14.20
2022-11-08T00:02:27.437Z,14.20
2022-11-08T00:04:54.357Z,14.20
2022-11-08T00:07:39.912Z,14.20
2022-11-08T00:10:26.009Z,14.20
2022-11-08T00:13:11.520Z,14.20
2022-11-08T00:15:39.177Z,14.20
2022-11-08T00:18:07.520Z,14.30
2022-11-08T00:20:35.128Z,14.20
2022-11-08T00:23:03.909Z,14.30
2022-11-08T00:25:30.738Z,14.30
2022-11-08T00:27:58.015Z,14.20
2022-11-08T00:30:25.004Z,14.20
2022-11-08T00:32:51.763Z,14.30
2022-11-08T00:35:18.589Z,14.20
2022-11-08T00:37:45.572Z,14.20
2022-11-08T00:40:12.800Z,14.20
2022-11-08T00:42:39.687Z,14.20
2022-11-08T00:45:07.140Z,14.20
2022-11-08T00:47:34.461Z,14.10
2022-11-08T00:50:01.261Z,14.10
2022-11-08T00:52:28.312Z,14.10
2022-11-08T00:54:55.058Z,14.10
2022-11-08T00:57:27.492Z,14.00
2022-11-08T01:00:08.702Z,14.00
2022-11-08T01:02:35.994Z,14.00
2022-11-08T01:05:02.923Z,14.00
2022-11-08T01:07:29.807Z,14.00
2022-11-08T01:09:56.606Z,14.00
2022-11-08T01:12:23.492Z,14.10
2022-11-08T01:14:50.734Z,14.10
2022-11-08T01:17:17.777Z,14.00
2022-11-08T01:19:44.971Z,14.10
2022-11-08T01:22:12.115Z,13.90
2022-11-08T01:24:39.264Z,14.00
2022-11-08T01:27:06.258Z,14.00
2022-11-08T01:29:33.802Z,14.10
2022-11-08T01:32:00.764Z,14.10
2022-11-08T01:34:27.681Z,14.10
2022-11-08T01:36:54.502Z,14.10
2022-11-08T01:39:21.224Z,14.00
2022-11-08T01:41:48.014Z,14.00
2022-11-08T01:44:17.319Z,14.00
2022-11-08T01:46:47.641Z,14.00
2022-11-08T01:49:18.979Z,14.00
2022-11-08T01:51:57.067Z,14.00
2022-11-08T01:54:36.875Z,14.00
2022-11-08T01:57:08.795Z,13.90
2022-11-08T01:59:38.426Z,13.80
2022-11-08T02:02:06.395Z,13.80
2022-11-08T02:04:33.689Z,13.80
2022-11-08T02:07:01.735Z,13.70
2022-11-08T02:09:30.673Z,13.70
2022-11-08T02:11:58.143Z,13.70
2022-11-08T02:14:24.895Z,13.60
2022-11-08T02:16:52.004Z,13.70
2022-11-08T02:19:45.705Z,13.60
2022-11-08T02:22:35.444Z,13.60
2022-11-08T02:25:03.121Z,13.60
2022-11-08T02:27:30.428Z,13.60
2022-11-08T02:29:57.539Z,13.60
2022-11-08T02:32:24.877Z,13.60
2022-11-08T02:34:58.391Z,13.60
2022-11-08T02:37:26.624Z,13.60
2022-11-08T02:39:53.582Z,13.70
2022-11-08T02:42:21.327Z,13.60
2022-11-08T02:44:48.999Z,13.60
2022-11-08T02:47:16.668Z,13.60
2022-11-08T02:49:43.650Z,13.60
2022-11-08T02:52:10.940Z,13.60
2022-11-08T02:54:38.416Z,13.70
2022-11-08T02:57:05.194Z,13.80
2022-11-08T02:59:32.160Z,13.90
2022-11-08T03:01:59.549Z,13.90
2022-11-08T03:04:26.559Z,13.80
2022-11-08T03:06:53.367Z,13.70
2022-11-08T03:09:20.379Z,13.80
2022-11-08T03:11:47.673Z,13.80
2022-11-08T03:14:14.529Z,13.80
2022-11-08T03:16:41.347Z,13.90
2022-11-08T03:19:08.454Z,13.90
2022-11-08T03:21:36.789Z,13.90
2022-11-08T03:24:04.873Z,13.90
2022-11-08T03:26:33.285Z,13.90
2022-11-08T03:29:00.314Z,13.90
2022-11-08T03:31:27.592Z,13.90
2022-11-08T03:33:54.513Z,13.90
2022-11-08T03:36:21.388Z,13.90
2022-11-08T03:38:48.358Z,13.90
2022-11-08T03:41:15.300Z,13.80
2022-11-08T03:43:42.359Z,13.80
2022-11-08T03:46:09.283Z,14.00
2022-11-08T03:48:36.556Z,13.90
2022-11-08T03:51:03.661Z,14.00
2022-11-08T03:53:30.508Z,13.90
2022-11-08T03:56:00.029Z,13.90
2022-11-08T03:58:26.928Z,13.80
2022-11-08T04:00:54.289Z,13.90
2022-11-08T04:03:21.516Z,13.90
2022-11-08T04:05:48.545Z,13.80
2022-11-08T04:08:16.093Z,13.80
2022-11-08T04:10:43.299Z,13.70
2022-11-08T04:13:29.505Z,13.80
2022-11-08T04:15:57.881Z,13.80
2022-11-08T04:18:43.570Z,13.90
2022-11-08T04:21:20.017Z,13.90
2022-11-08T04:23:51.437Z,13.90
2022-11-08T04:26:19.572Z,13.80
2022-11-08T04:28:46.867Z,13.80
2022-11-08T04:31:16.917Z,13.80
2022-11-08T04:33:44.518Z,13.70
2022-11-08T04:36:16.685Z,13.70
2022-11-08T04:38:44.130Z,13.70
2022-11-08T04:41:13.878Z,13.70
2022-11-08T04:43:42.110Z,13.80
2022-11-08T04:46:11.756Z,13.60
2022-11-08T04:48:38.740Z,13.60
2022-11-08T04:51:12.003Z,13.60
2022-11-08T04:53:39.050Z,13.50
2022-11-08T04:56:08.850Z,13.60
2022-11-08T04:58:38.574Z,13.60
2022-11-08T05:01:07.824Z,13.50
2022-11-08T05:03:35.190Z,13.50
2022-11-08T05:06:03.935Z,13.50
2022-11-08T05:08:31.386Z,13.50
2022-11-08T05:11:06.466Z,13.40
2022-11-08T05:13:33.716Z,13.40
2022-11-08T05:16:22.225Z,13.50
2022-11-08T05:18:52.019Z,13.40
2022-11-08T05:21:39.303Z,13.40
2022-11-08T05:24:08.771Z,13.40
2022-11-08T05:26:38.060Z,13.30
2022-11-08T05:29:05.738Z,13.30
2022-11-08T05:31:32.963Z,13.30
2022-11-08T05:34:00.905Z,13.30
2022-11-08T05:36:28.824Z,13.40
2022-11-08T05:38:59.196Z,13.40
2022-11-08T05:41:29.925Z,13.40
2022-11-08T05:43:57.502Z,13.30
2022-11-08T05:46:25.077Z,13.20
2022-11-08T05:48:52.506Z,13.30
2022-11-08T05:51:20.389Z,13.10
2022-11-08T05:53:59.640Z,13.20
2022-11-08T05:56:26.942Z,13.20
2022-11-08T05:58:54.001Z,13.30
2022-11-08T06:01:21.564Z,13.30
2022-11-08T06:03:48.598Z,13.30
2022-11-08T06:06:20.957Z,13.40
2022-11-08T06:08:50.732Z,13.30
2022-11-08T06:11:22.175Z,13.40
2022-11-08T06:13:50.745Z,13.30
2022-11-08T06:16:19.435Z,13.30
2022-11-08T06:18:47.105Z,13.40
2022-11-08T06:21:16.542Z,13.40
2022-11-08T06:23:44.953Z,13.50
2022-11-08T06:26:12.149Z,13.40
2022-11-08T06:28:39.557Z,13.40
2022-11-08T06:31:06.681Z,13.40
2022-11-08T06:33:33.755Z,13.30
2022-11-08T06:36:01.149Z,13.30
2022-11-08T06:38:28.616Z,13.40
2022-11-08T06:41:00.258Z,13.40
2022-11-08T06:43:27.621Z,13.30
2022-11-08T06:45:54.831Z,13.20
2022-11-08T06:48:21.667Z,13.30
2022-11-08T06:50:48.685Z,13.30
2022-11-08T06:53:15.941Z,13.20
2022-11-08T06:55:43.027Z,13.30
2022-11-08T06:58:11.159Z,13.30
2022-11-08T07:00:38.606Z,13.40
2022-11-08T07:03:05.638Z,13.50
2022-11-08T07:05:34.777Z,13.50
2022-11-08T07:08:04.066Z,13.40
2022-11-08T07:10:32.431Z,13.40
2022-11-08T07:13:01.730Z,13.40
2022-11-08T07:15:29.820Z,13.40
2022-11-08T07:18:04.346Z,13.20
2022-11-08T07:20:31.355Z,13.30
2022-11-08T07:22:59.620Z,13.30
2022-11-08T07:25:27.892Z,13.30
2022-11-08T07:28:03.678Z,13.30
2022-11-08T07:30:31.518Z,13.40
2022-11-08T07:32:58.998Z,13.30
2022-11-08T07:35:27.924Z,13.30
2022-11-08T07:37:55.685Z,13.30
2022-11-08T07:40:23.117Z,13.20
2022-11-08T07:43:10.677Z,13.30
2022-11-08T07:45:37.544Z,13.30
2022-11-08T07:48:11.397Z,13.40
2022-11-08T07:50:40.166Z,13.30
2022-11-08T07:53:07.131Z,13.30
2022-11-08T07:55:37.640Z,13.40
2022-11-08T07:58:04.699Z,13.40
2022-11-08T08:00:33.694Z,13.50
2022-11-08T08:03:01.628Z,13.50
2022-11-08T08:05:30.393Z,13.50
2022-11-08T08:08:02.004Z,13.50
2022-11-08T08:10:30.589Z,13.50
2022-11-08T08:12:58.311Z,13.50
2022-11-08T08:15:26.013Z,13.50
2022-11-08T08:17:53.135Z,13.60
2022-11-08T08:20:20.083Z,13.70
2022-11-08T08:22:48.113Z,13.80
2022-11-08T08:25:16.335Z,13.80
2022-11-08T08:27:54.482Z,13.80
2022-11-08T08:30:22.153Z,13.90
2022-11-08T08:33:02.223Z,13.90
2022-11-08T08:35:37.718Z,14.00
2022-11-08T08:38:06.222Z,14.00
2022-11-08T08:40:34.950Z,14.00
2022-11-08T08:43:03.577Z,14.00
2022-11-08T08:45:31.722Z,14.10
2022-11-08T08:47:59.355Z,14.00
2022-11-08T08:50:28.774Z,14.10
2022-11-08T08:53:00.028Z,14.20
2022-11-08T08:55:27.503Z,14.20
2022-11-08T08:57:54.370Z,14.40
2022-11-08T09:03:10.854Z,14.40
2022-11-08T09:05:41.238Z,14.40
2022-11-08T09:08:08.656Z,14.40
2022-11-08T09:10:35.844Z,14.40
2022-11-08T09:13:03.750Z,14.30
2022-11-08T09:15:30.933Z,14.30
2022-11-08T09:17:58.367Z,14.20
2022-11-08T09:20:26.435Z,14.40
2022-11-08T09:22:53.772Z,14.40
2022-11-08T09:25:20.715Z,14.40
2022-11-08T09:27:47.706Z,14.30
2022-11-08T09:30:14.761Z,14.30
2022-11-08T09:35:29.457Z,14.50
2022-11-08T09:37:56.753Z,14.50
2022-11-08T09:40:38.506Z,14.60
2022-11-08T09:43:43.615Z,14.60
2022-11-08T09:46:26.125Z,14.60
2022-11-08T09:48:55.156Z,14.60
2022-11-08T09:51:25.043Z,14.60
2022-11-08T09:54:19.668Z,14.60
2022-11-08T09:56:48.037Z,14.70
2022-11-08T09:59:20.887Z,14.70
2022-11-08T10:01:49.643Z,14.80
2022-11-08T10:04:19.348Z,14.80
2022-11-08T10:06:49.203Z,15.00
2022-11-08T10:09:43.575Z,15.00
2022-11-08T10:12:25.576Z,15.00
2022-11-08T10:15:14.024Z,15.00
2022-11-08T10:18:02.592Z,15.20
2022-11-08T10:20:46.761Z,15.10
2022-11-08T10:23:32.413Z,15.20
2022-11-08T10:26:12.092Z,15.20
2022-11-08T10:28:44.443Z,15.50
2022-11-08T10:31:14.741Z,15.80
2022-11-08T10:33:53.056Z,15.90
2022-11-08T10:36:32.393Z,16.20
2022-11-08T10:39:15.071Z,16.40
2022-11-08T10:42:10.364Z,16.60
2022-11-08T10:44:38.494Z,16.80
2022-11-08T10:47:11.374Z,17.10
2022-11-08T10:49:43.053Z,17.20
2022-11-08T10:52:16.698Z,17.30
2022-11-08T10:54:44.954Z,17.40
2022-11-08T10:57:31.559Z,17.30
2022-11-08T11:00:16.167Z,17.30
2022-11-08T11:02:44.327Z,17.40
2022-11-08T11:05:18.250Z,17.50
2022-11-08T11:07:47.530Z,17.40
2022-11-08T11:10:23.581Z,17.40
2022-11-08T11:13:02.537Z,17.30
2022-11-08T11:15:34.878Z,17.50
2022-11-08T11:18:02.602Z,17.50
2022-11-08T11:20:29.847Z,17.30
2022-11-08T11:23:00.287Z,17.30
2022-11-08T11:25:28.335Z,17.30
2022-11-08T11:27:58.628Z,17.50
2022-11-08T11:30:33.634Z,17.70
2022-11-08T11:33:23.947Z,17.90
2022-11-08T11:36:12.270Z,17.80
2022-11-08T11:39:20.237Z,17.90
2022-11-08T11:41:49.856Z,17.90
2022-11-08T11:44:25.084Z,17.80
2022-11-08T11:47:07.193Z,17.60
2022-11-08T11:49:35.950Z,17.40
2022-11-08T11:52:03.369Z,17.40
2022-11-08T11:54:35.108Z,17.60
2022-11-08T11:57:13.317Z,17.70
2022-11-08T12:00:09.558Z,17.90
2022-11-08T12:03:10.431Z,18.10
2022-11-08T12:05:40.348Z,18.30
2022-11-08T12:08:22.641Z,18.40
2022-11-08T12:11:19.869Z,18.40
2022-11-08T12:14:19.450Z,18.40
2022-11-08T12:17:01.893Z,18.50
2022-11-08T12:19:46.931Z,18.40
2022-11-08T12:22:51.118Z,18.50
2022-11-08T12:25:33.257Z,18.50
2022-11-08T12:28:41.963Z,18.60
2022-11-08T12:31:21.249Z,18.40
2022-11-08T12:33:55.285Z,18.00
2022-11-08T12:36:34.210Z,17.70
2022-11-08T12:39:00.912Z,17.60
2022-11-08T12:41:46.030Z,17.60
2022-11-08T12:44:22.686Z,17.30
2022-11-08T12:47:23.046Z,17.30
2022-11-08T12:50:30.284Z,17.20
2022-11-08T12:53:35.782Z,17.20
2022-11-08T12:56:05.783Z,17.00
2022-11-08T12:58:49.319Z,17.10
2022-11-08T13:01:18.997Z,17.10
2022-11-08T13:03:52.151Z,17.10
2022-11-08T13:06:50.801Z,17.00
2022-11-08T13:09:21.507Z,17.10
2022-11-08T13:12:28.324Z,17.10
2022-11-08T13:14:55.853Z,17.10
2022-11-08T13:17:26.549Z,17.00
2022-11-08T13:19:58.443Z,16.90
2022-11-08T13:22:33.195Z,16.90
2022-11-08T13:25:06.390Z,17.00
2022-11-08T13:27:37.765Z,16.90
2022-11-08T13:30:25.232Z,17.00
2022-11-08T13:33:04.207Z,16.90
2022-11-08T13:36:16.859Z,17.00
2022-11-08T13:38:58.389Z,16.90
2022-11-08T13:41:26.361Z,17.00
2022-11-08T13:43:56.548Z,17.10
2022-11-08T13:46:25.922Z,17.10
2022-11-08T13:48:58.841Z,17.20
2022-11-08T13:51:31.278Z,17.10
2022-11-08T13:54:01.310Z,17.30
2022-11-08T13:57:00.986Z,17.40
2022-11-08T13:59:30.879Z,17.50
2022-11-08T14:01:58.193Z,17.70
2022-11-08T14:04:33.970Z,18.00
2022-11-08T14:07:25.340Z,18.10
2022-11-08T14:09:59.330Z,17.90
2022-11-08T14:12:44.853Z,17.80
2022-11-08T14:15:23.860Z,17.60
2022-11-08T14:17:58.657Z,17.50
2022-11-08T14:20:48.208Z,17.40
2022-11-08T14:23:22.414Z,17.50
2022-11-08T14:25:57.002Z,17.50
2022-11-08T14:28:45.421Z,17.50
2022-11-08T14:31:32.146Z,17.40
2022-11-08T14:34:00.755Z,17.20
2022-11-08T14:36:30.362Z,17.20
2022-11-08T14:39:05.219Z,17.10
2022-11-08T14:41:33.817Z,17.00
2022-11-08T14:44:02.777Z,17.00
2022-11-08T14:46:38.898Z,17.00
2022-11-08T14:49:19.479Z,17.10
2022-11-08T14:51:47.061Z,17.00
2022-11-08T14:54:20.056Z,17.00
2022-11-08T14:56:48.290Z,17.00
2022-11-08T14:59:15.346Z,17.10
2022-11-08T15:01:47.299Z,17.10
2022-11-08T15:04:18.799Z,17.20
2022-11-08T15:06:54.996Z,17.10
2022-11-08T15:09:25.490Z,17.00
2022-11-08T15:12:02.584Z,17.10
2022-11-08T15:14:33.400Z,17.10
2022-11-08T15:17:03.312Z,17.00
2022-11-08T15:19:30.740Z,17.00
2022-11-08T15:22:03.207Z,17.00
2022-11-08T15:24:40.719Z,17.00
2022-11-08T15:27:10.347Z,16.90
2022-11-08T15:30:04.186Z,16.90
2022-11-08T15:32:36.789Z,17.00
2022-11-08T15:35:05.677Z,17.00
2022-11-08T15:37:37.545Z,16.90
2022-11-08T15:40:28.325Z,17.00
2022-11-08T15:42:55.828Z,16.90
2022-11-08T15:45:29.219Z,16.90
2022-11-08T15:48:22.031Z,16.90
2022-11-08T15:50:49.707Z,16.80
2022-11-08T15:53:17.220Z,16.70
2022-11-08T15:55:57.141Z,16.70
2022-11-08T15:58:29.846Z,16.70
2022-11-08T16:01:01.703Z,16.60
2022-11-08T16:03:31.083Z,16.60
2022-11-08T16:05:58.437Z,16.80
2022-11-08T16:08:25.912Z,16.70
2022-11-08T16:10:59.958Z,16.60
2022-11-08T16:13:35.602Z,16.50
2022-11-08T16:16:05.021Z,16.50
2022-11-08T16:18:34.261Z,16.50
2022-11-08T16:21:01.754Z,16.50
2022-11-08T16:23:28.609Z,16.50
2022-11-08T16:25:56.946Z,16.50
2022-11-08T16:28:29.753Z,16.40
2022-11-08T16:30:57.644Z,16.40
2022-11-08T16:33:27.445Z,16.30
2022-11-08T16:35:56.145Z,16.30
2022-11-08T16:38:27.591Z,16.40
2022-11-08T16:40:55.031Z,16.50
2022-11-08T16:43:21.821Z,16.50
2022-11-08T16:46:04.802Z,16.50
2022-11-08T16:48:33.789Z,16.60
2022-11-08T16:51:03.786Z,16.60
2022-11-08T16:53:30.713Z,16.60
2022-11-08T16:55:58.256Z,16.60
2022-11-08T16:58:26.483Z,16.60
2022-11-08T17:00:53.550Z,16.60
2022-11-08T17:03:24.464Z,16.70
2022-11-08T17:05:52.941Z,16.70
2022-11-08T17:08:20.516Z,16.70
2022-11-08T17:10:47.852Z,16.70
2022-11-08T17:13:17.626Z,16.60
2022-11-08T17:15:46.412Z,16.70
2022-11-08T17:18:21.439Z,16.70
2022-11-08T17:20:49.312Z,16.80
2022-11-08T17:23:17.922Z,16.70
2022-11-08T17:25:45.835Z,16.70
2022-11-08T17:28:13.660Z,16.70
2022-11-08T17:30:44.299Z,16.60
2022-11-08T17:33:13.106Z,16.60
2022-11-08T17:35:44.194Z,16.50
2022-11-08T17:38:12.452Z,16.50
2022-11-08T17:40:42.385Z,16.60
2022-11-08T17:43:09.780Z,16.50
2022-11-08T17:45:36.555Z,16.50
2022-11-08T17:48:03.745Z,16.50
2022-11-08T17:50:30.553Z,16.50
2022-11-08T17:52:57.425Z,16.60
2022-11-08T17:55:24.552Z,16.60
2022-11-08T17:57:52.303Z,16.50
2022-11-08T18:00:19.590Z,16.50
2022-11-08T18:02:46.443Z,16.50
2022-11-08T18:05:13.267Z,16.60
2022-11-08T18:07:41.073Z,16.60
2022-11-08T18:10:09.879Z,16.60
2022-11-08T18:12:36.816Z,16.50
2022-11-08T18:15:06.219Z,16.50
2022-11-08T18:17:33.164Z,16.50
2022-11-08T18:20:00.190Z,16.50
2022-11-08T18:22:27.851Z,16.40
2022-11-08T18:24:54.674Z,16.50
2022-11-08T18:27:21.662Z,16.50
2022-11-08T18:29:48.561Z,16.40
2022-11-08T18:32:15.432Z,16.40
2022-11-08T18:34:42.551Z,16.40
2022-11-08T18:37:09.673Z,16.40
2022-11-08T18:39:36.460Z,16.40
2022-11-08T18:42:04.053Z,16.50
2022-11-08T18:44:30.804Z,16.50
2022-11-08T18:46:58.411Z,16.40
2022-11-08T18:49:25.564Z,16.30
2022-11-08T18:51:57.048Z,16.40
2022-11-08T18:54:24.296Z,16.40
2022-11-08T18:56:51.225Z,16.40
2022-11-08T18:59:18.492Z,16.40
2022-11-08T19:01:45.524Z,16.30
2022-11-08T19:04:12.646Z,16.30
2022-11-08T19:06:40.322Z,16.30
2022-11-08T19:09:07.370Z,16.30
2022-11-08T19:11:34.569Z,16.30
2022-11-08T19:14:02.220Z,16.20
2022-11-08T19:16:29.625Z,16.20
2022-11-08T19:18:56.449Z,16.20
2022-11-08T19:21:27.855Z,16.20
2022-11-08T19:24:00.108Z,16.20
2022-11-08T19:26:28.708Z,16.00
2022-11-08T19:28:56.934Z,16.00
2022-11-08T19:31:25.455Z,16.00
2022-11-08T19:33:54.064Z,16.10
2022-11-08T19:36:24.224Z,16.00
2022-11-08T19:38:53.456Z,16.00
2022-11-08T19:41:22.712Z,16.00
2022-11-08T19:43:50.204Z,16.00
2022-11-08T19:46:18.753Z,16.00
2022-11-08T19:48:49.269Z,16.10
2022-11-08T19:51:25.827Z,16.10
2022-11-08T19:53:56.999Z,16.10
2022-11-08T19:56:38.038Z,16.00
2022-11-08T19:59:11.095Z,15.90
2022-11-08T20:01:40.183Z,15.80
2022-11-08T20:04:10.735Z,15.80
2022-11-08T20:06:37.993Z,15.80
2022-11-08T20:09:05.873Z,15.80
2022-11-08T20:11:40.416Z,15.80
2022-11-08T20:14:08.431Z,15.80
2022-11-08T20:16:42.123Z,16.00
2022-11-08T20:19:14.633Z,16.00
2022-11-08T20:21:44.227Z,16.00
2022-11-08T20:24:12.586Z,16.00
2022-11-08T20:26:41.519Z,15.90
2022-11-08T20:29:09.437Z,15.90
2022-11-08T20:31:37.059Z,15.80
2022-11-08T20:34:07.392Z,15.80
2022-11-08T20:36:37.667Z,15.80
2022-11-08T20:39:07.673Z,15.70
2022-11-08T20:41:37.212Z,15.70
2022-11-08T20:44:05.850Z,15.70
2022-11-08T20:46:33.249Z,15.60
2022-11-08T20:49:01.553Z,15.70
2022-11-08T20:51:30.125Z,15.80
2022-11-08T20:54:00.182Z,15.70
2022-11-08T20:56:29.046Z,15.60
2022-11-08T20:58:56.478Z,15.60
2022-11-08T21:01:26.861Z,15.50
2022-11-08T21:03:55.174Z,15.60
2022-11-08T21:06:23.840Z,15.70
2022-11-08T21:09:02.639Z,15.80
2022-11-08T21:11:37.095Z,15.70
2022-11-08T21:14:05.453Z,15.70
2022-11-08T21:16:59.310Z,15.60
2022-11-08T21:19:20.935Z,15.60
2022-11-08T21:21:47.903Z,15.60
2022-11-08T21:24:17.034Z,15.60
2022-11-08T21:26:43.948Z,15.60
2022-11-08T21:29:10.754Z,15.60
2022-11-08T21:31:37.610Z,15.60
2022-11-08T21:34:04.874Z,15.70
2022-11-08T21:36:31.704Z,15.60
2022-11-08T21:38:58.461Z,15.60
2022-11-08T21:41:25.518Z,15.60
2022-11-08T21:43:52.625Z,15.60
2022-11-08T21:46:25.280Z,15.60
2022-11-08T21:49:01.805Z,15.80
2022-11-08T21:51:29.658Z,15.80
2022-11-08T21:53:58.899Z,15.70
2022-11-08T21:56:32.072Z,15.80
2022-11-08T21:59:00.188Z,15.80
2022-11-08T22:01:30.688Z,15.70
2022-11-08T22:03:58.913Z,15.60
2022-11-08T22:06:26.446Z,15.70
2022-11-08T22:08:53.680Z,15.60
2022-11-08T22:11:20.629Z,15.80
2022-11-08T22:13:47.849Z,15.70
2022-11-08T22:16:14.700Z,15.80
2022-11-08T22:21:41.524Z,15.70
2022-11-08T22:24:10.753Z,16.00
2022-11-08T22:26:38.683Z,15.80
2022-11-08T22:29:05.811Z,15.80
2022-11-08T22:31:33.396Z,15.70
2022-11-08T22:34:00.637Z,15.80
2022-11-08T22:36:27.965Z,15.80
2022-11-08T22:38:55.478Z,15.90
2022-11-08T22:41:23.545Z,15.90
2022-11-08T22:43:50.578Z,15.80
2022-11-08T22:46:18.161Z,15.80
2022-11-08T22:48:45.459Z,15.70
2022-11-08T22:51:12.439Z,15.70
2022-11-08T22:53:39.514Z,15.80
2022-11-08T22:56:11.100Z,16.00
2022-11-08T22:58:38.777Z,15.90
2022-11-08T23:01:07.728Z,16.00
2022-11-08T23:03:34.692Z,15.90
2022-11-08T23:06:01.673Z,15.90
2022-11-08T23:08:29.854Z,15.80
2022-11-08T23:11:18.577Z,15.60
2022-11-08T23:14:04.143Z,15.80
2022-11-08T23:16:32.080Z,15.80
2022-11-08T23:19:18.569Z,15.80
2022-11-08T23:22:03.957Z,15.70
2022-11-08T23:24:31.857Z,15.70
2022-11-08T23:27:18.275Z,15.70
2022-11-08T23:30:04.021Z,15.70
2022-11-08T23:32:31.381Z,15.70
2022-11-08T23:34:58.379Z,15.80
2022-11-08T23:37:26.006Z,15.60
2022-11-08T23:40:11.757Z,15.40
2022-11-08T23:42:56.953Z,15.40
2022-11-08T23:45:23.856Z,15.50
2022-11-08T23:47:52.539Z,15.30
2022-11-08T23:50:19.579Z,15.40
2022-11-08T23:52:46.885Z,15.40
2022-11-08T23:55:13.701Z,15.30
2022-11-08T23:57:40.635Z,15.30
